Lawrence, Kansas
Current Conditions -  °F | °C
As of 12:28 AM on Monday 22 Dec 2014 (Local Time) from KLWC Reporting Station
Overcast Overcast  
Wind Chill: 37°   Ceiling: 1900
Heat Index: 43°   Visibility: 7mi
Dew Point: 39°   Wind: 10mph
Humidity: 86%   Direction: 150°SSE
Pressure: 29.71"   Gusts: NA
Location:  38.9718°N, 95.235°W
Report Text: KLWC 220628Z AUTO 15009KT 7SM BKN019 OVC060 06/04 A2971 RMK AO2 T00610039
Loading
Personal Weather Stations






























Interactive Weather Map New forecast layout! Learn more

10-Day Weather Forecast

Advertisements
Track Severe Weather on mobile